createdAt,value
2022-10-09T00:03:12.022Z,54
2022-10-09T00:13:11.912Z,54
2022-10-09T00:23:12.021Z,54
2022-10-09T00:33:11.918Z,54
2022-10-09T00:43:12.030Z,54
2022-10-09T00:53:11.900Z,54
2022-10-09T01:03:12.056Z,54
2022-10-09T01:13:11.921Z,54
2022-10-09T01:23:12.048Z,54
2022-10-09T01:33:11.934Z,54
2022-10-09T01:43:12.058Z,54
2022-10-09T01:53:12.204Z,54
2022-10-09T02:03:12.059Z,54
2022-10-09T02:13:12.139Z,54
2022-10-09T02:23:12.060Z,54
2022-10-09T02:33:12.136Z,54
2022-10-09T02:43:12.068Z,54
2022-10-09T02:53:12.135Z,54
2022-10-09T03:03:12.042Z,56
2022-10-09T03:13:12.126Z,56
2022-10-09T03:23:12.050Z,56
2022-10-09T03:33:12.140Z,56
2022-10-09T03:43:12.070Z,56
2022-10-09T03:53:12.157Z,56
2022-10-09T04:03:12.282Z,56
2022-10-09T04:13:12.148Z,56
2022-10-09T04:23:12.282Z,56
2022-10-09T04:33:13.171Z,56
2022-10-09T04:43:12.270Z,56
2022-10-09T04:53:12.140Z,56
2022-10-09T05:03:12.284Z,56
2022-10-09T05:13:12.165Z,56
2022-10-09T05:23:12.275Z,56
2022-10-09T05:33:12.163Z,56
2022-10-09T05:43:12.281Z,56
2022-10-09T05:53:12.338Z,56
2022-10-09T06:03:12.297Z,56
2022-10-09T06:13:12.375Z,56
2022-10-09T06:23:12.283Z,56
2022-10-09T06:33:12.359Z,56
2022-10-09T06:43:12.323Z,56
2022-10-09T06:53:12.455Z,56
2022-10-09T07:03:12.419Z,56
2022-10-09T07:13:12.453Z,56
2022-10-09T07:23:12.346Z,54.5
2022-10-09T07:33:12.446Z,54.5
2022-10-09T07:43:12.367Z,54.5
2022-10-09T07:53:12.455Z,54
2022-10-09T08:03:12.355Z,52.5
2022-10-09T08:13:12.433Z,51.5
2022-10-09T08:23:12.554Z,48.5
2022-10-09T08:33:12.503Z,48.5
2022-10-09T08:43:12.567Z,50
2022-10-09T08:53:12.453Z,50
2022-10-09T09:03:12.599Z,50
2022-10-09T09:13:12.442Z,47.5
2022-10-09T09:23:12.596Z,50
2022-10-09T09:33:12.509Z,50.5
2022-10-09T09:43:12.626Z,51.5
2022-10-09T09:53:12.497Z,50.5
2022-10-09T10:03:12.604Z,50.5
2022-10-09T10:13:12.500Z,50.5
2022-10-09T10:23:12.620Z,50.5
2022-10-09T10:33:12.694Z,50.5
2022-10-09T10:43:12.588Z,50.5
2022-10-09T10:53:12.682Z,49
2022-10-09T11:03:12.677Z,48.5
2022-10-09T11:13:12.692Z,50
2022-10-09T11:23:12.582Z,50
2022-10-09T11:33:12.668Z,50
2022-10-09T11:43:12.657Z,50
2022-10-09T11:53:12.685Z,50
2022-10-09T12:03:12.662Z,50
2022-10-09T12:13:12.665Z,50
2022-10-09T12:23:28.685Z,50
2022-10-09T12:33:12.869Z,48.5
2022-10-09T12:43:12.999Z,48.5
2022-10-09T12:53:12.851Z,48.5
2022-10-09T13:03:12.955Z,48.5
2022-10-09T13:13:12.771Z,48.5
2022-10-09T13:23:12.987Z,48.5
2022-10-09T13:33:13.025Z,48.5
2022-10-09T13:43:12.961Z,48.5
2022-10-09T13:53:12.963Z,48.5
2022-10-09T14:03:12.783Z,48.5
2022-10-09T14:13:12.804Z,48.5
2022-10-09T14:23:12.722Z,48.5
2022-10-09T14:33:12.804Z,48.5
2022-10-09T14:43:12.744Z,48.5
2022-10-09T14:53:12.804Z,48.5
2022-10-09T15:03:12.935Z,48.5
2022-10-09T15:13:12.793Z,48.5
2022-10-09T15:23:12.936Z,48.5
2022-10-09T15:33:12.808Z,48.5
2022-10-09T15:43:12.914Z,50
2022-10-09T15:53:12.997Z,50
2022-10-09T16:03:12.934Z,48.5
2022-10-09T16:13:12.990Z,50
2022-10-09T16:23:12.923Z,50
2022-10-09T16:33:13.322Z,50
2022-10-09T16:43:12.900Z,50
2022-10-09T16:53:12.999Z,50
2022-10-09T17:03:12.894Z,50
2022-10-09T17:13:13.030Z,50
2022-10-09T17:23:13.215Z,50
2022-10-09T17:33:16.309Z,50
2022-10-09T17:43:13.082Z,50
2022-10-09T17:53:12.979Z,50
2022-10-09T18:03:13.123Z,50
2022-10-09T18:13:12.993Z,50
2022-10-09T18:23:13.097Z,50
2022-10-09T18:33:12.990Z,50
2022-10-09T18:43:13.096Z,50
2022-10-09T18:53:12.993Z,50
2022-10-09T19:03:13.095Z,50
2022-10-09T19:13:13.160Z,50
2022-10-09T19:23:13.098Z,50
2022-10-09T19:33:13.188Z,50
2022-10-09T19:43:13.080Z,50
2022-10-09T19:53:13.155Z,50
2022-10-09T20:03:13.073Z,50
2022-10-09T20:13:13.152Z,50
2022-10-09T20:23:13.117Z,52
2022-10-09T20:33:13.198Z,52
2022-10-09T20:43:13.343Z,52
2022-10-09T20:53:13.182Z,52
2022-10-09T21:03:13.297Z,52
2022-10-09T21:13:13.179Z,52
2022-10-09T21:23:13.305Z,52
2022-10-09T21:33:13.152Z,52
2022-10-09T21:43:13.272Z,52
2022-10-09T21:53:13.163Z,52
2022-10-09T22:03:13.364Z,52
2022-10-09T22:13:13.169Z,52
2022-10-09T22:23:13.315Z,52
2022-10-09T22:33:13.356Z,52
2022-10-09T22:43:13.309Z,54.5
2022-10-09T22:53:13.373Z,63
2022-10-09T23:03:13.310Z,74
2022-10-09T23:13:13.373Z,72.5
2022-10-09T23:23:13.430Z,72
2022-10-09T23:33:13.326Z,72
2022-10-09T23:43:13.479Z,73
2022-10-09T23:53:13.340Z,74
